sensor_id;sensor_type;location;lat;lon;timestamp;pressure;altitude;pressure_sealevel;temperature;humidity
2188;BME280;1100;52.014;8.540;2023-03-21T00:00:04;100237.56;;;6.85;83.26
2188;BME280;1100;52.014;8.540;2023-03-21T00:02:29;100230.09;;;6.82;83.43
2188;BME280;1100;52.014;8.540;2023-03-21T00:04:59;100234.41;;;6.83;83.68
2188;BME280;1100;52.014;8.540;2023-03-21T00:07:24;100232.44;;;6.83;83.40
2188;BME280;1100;52.014;8.540;2023-03-21T00:09:52;100228.88;;;6.83;83.65
2188;BME280;1100;52.014;8.540;2023-03-21T00:12:17;100230.13;;;6.78;83.58
2188;BME280;1100;52.014;8.540;2023-03-21T00:14:45;100236.84;;;6.77;83.59
2188;BME280;1100;52.014;8.540;2023-03-21T00:17:10;100230.94;;;6.75;83.63
2188;BME280;1100;52.014;8.540;2023-03-21T00:19:36;100230.53;;;6.77;84.07
2188;BME280;1100;52.014;8.540;2023-03-21T00:22:03;100231.69;;;6.79;83.94
2188;BME280;1100;52.014;8.540;2023-03-21T00:24:28;100228.88;;;6.83;83.69
2188;BME280;1100;52.014;8.540;2023-03-21T00:26:55;100237.56;;;6.85;83.86
2188;BME280;1100;52.014;8.540;2023-03-21T00:29:20;100222.19;;;6.84;83.77
2188;BME280;1100;52.014;8.540;2023-03-21T00:31:45;100222.59;;;6.82;83.84
2188;BME280;1100;52.014;8.540;2023-03-21T00:34:11;100217.88;;;6.79;83.56
2188;BME280;1100;52.014;8.540;2023-03-21T00:36:36;100217.09;;;6.79;83.62
2188;BME280;1100;52.014;8.540;2023-03-21T00:39:01;100220.25;;;6.81;83.60
2188;BME280;1100;52.014;8.540;2023-03-21T00:41:28;100213.91;;;6.80;83.38
2188;BME280;1100;52.014;8.540;2023-03-21T00:43:54;100216.69;;;6.80;83.60
2188;BME280;1100;52.014;8.540;2023-03-21T00:46:19;100212.38;;;6.79;83.70
2188;BME280;1100;52.014;8.540;2023-03-21T00:48:45;100217.06;;;6.82;83.72
2188;BME280;1100;52.014;8.540;2023-03-21T00:51:19;100219.44;;;6.80;83.71
2188;BME280;1100;52.014;8.540;2023-03-21T00:53:50;100215.94;;;6.76;83.92
2188;BME280;1100;52.014;8.540;2023-03-21T00:56:15;100215.22;;;6.68;83.41
2188;BME280;1100;52.014;8.540;2023-03-21T00:58:40;100204.25;;;6.57;84.01
2188;BME280;1100;52.014;8.540;2023-03-21T01:01:06;100207.50;;;6.48;83.82
2188;BME280;1100;52.014;8.540;2023-03-21T01:03:33;100202.03;;;6.41;84.08
2188;BME280;1100;52.014;8.540;2023-03-21T01:06:10;100201.69;;;6.35;84.11
2188;BME280;1100;52.014;8.540;2023-03-21T01:08:39;100198.16;;;6.31;84.21
2188;BME280;1100;52.014;8.540;2023-03-21T01:11:11;100191.09;;;6.27;84.54
2188;BME280;1100;52.014;8.540;2023-03-21T01:13:37;100191.94;;;6.23;84.16
2188;BME280;1100;52.014;8.540;2023-03-21T01:16:04;100197.44;;;6.23;84.17
2188;BME280;1100;52.014;8.540;2023-03-21T01:18:30;100186.81;;;6.22;84.05
2188;BME280;1100;52.014;8.540;2023-03-21T01:20:59;100180.88;;;6.23;84.17
2188;BME280;1100;52.014;8.540;2023-03-21T01:23:26;100185.59;;;6.23;84.28
2188;BME280;1100;52.014;8.540;2023-03-21T01:25:54;100180.47;;;6.25;84.30
2188;BME280;1100;52.014;8.540;2023-03-21T01:28:20;100191.09;;;6.30;84.27
2188;BME280;1100;52.014;8.540;2023-03-21T01:30:47;100179.63;;;6.32;84.45
2188;BME280;1100;52.014;8.540;2023-03-21T01:33:13;100178.03;;;6.34;84.38
2188;BME280;1100;52.014;8.540;2023-03-21T01:35:39;100180.78;;;6.34;84.54
2188;BME280;1100;52.014;8.540;2023-03-21T01:38:05;100178.41;;;6.37;84.43
2188;BME280;1100;52.014;8.540;2023-03-21T01:40:31;100179.16;;;6.41;84.52
2188;BME280;1100;52.014;8.540;2023-03-21T01:42:56;100185.03;;;6.46;84.44
2188;BME280;1100;52.014;8.540;2023-03-21T01:48:26;100168.84;;;6.48;84.46
2188;BME280;1100;52.014;8.540;2023-03-21T01:50:52;100170.38;;;6.53;84.53
2188;BME280;1100;52.014;8.540;2023-03-21T01:53:24;100169.16;;;6.54;84.54
2188;BME280;1100;52.014;8.540;2023-03-21T01:55:56;100169.56;;;6.56;84.55
2188;BME280;1100;52.014;8.540;2023-03-21T01:58:22;100165.16;;;6.59;84.48
2188;BME280;1100;52.014;8.540;2023-03-21T02:00:51;100167.16;;;6.58;84.19
2188;BME280;1100;52.014;8.540;2023-03-21T02:03:19;100167.59;;;6.57;84.03
2188;BME280;1100;52.014;8.540;2023-03-21T02:08:16;100161.25;;;6.56;84.29
2188;BME280;1100;52.014;8.540;2023-03-21T02:10:46;100158.47;;;6.60;84.25
2188;BME280;1100;52.014;8.540;2023-03-21T02:13:15;100152.16;;;6.59;84.39
2188;BME280;1100;52.014;8.540;2023-03-21T02:15:47;100152.53;;;6.62;84.18
2188;BME280;1100;52.014;8.540;2023-03-21T02:18:25;100157.25;;;6.65;84.19
2188;BME280;1100;52.014;8.540;2023-03-21T02:37:47;100134.75;;;6.63;84.24
2188;BME280;1100;52.014;8.540;2023-03-21T02:40:38;100139.56;;;6.58;84.38
2188;BME280;1100;52.014;8.540;2023-03-21T02:45:53;100133.66;;;6.53;84.34
2188;BME280;1100;52.014;8.540;2023-03-21T02:48:29;100130.91;;;6.53;84.66
2188;BME280;1100;52.014;8.540;2023-03-21T02:50:59;100129.75;;;6.50;84.26
2188;BME280;1100;52.014;8.540;2023-03-21T02:53:30;100123.84;;;6.48;84.58
2188;BME280;1100;52.014;8.540;2023-03-21T02:55:58;100131.38;;;6.47;84.38
2188;BME280;1100;52.014;8.540;2023-03-21T02:58:26;100129.38;;;6.48;85.25
2188;BME280;1100;52.014;8.540;2023-03-21T03:00:52;100136.09;;;6.47;84.92
2188;BME280;1100;52.014;8.540;2023-03-21T03:03:20;100132.97;;;6.45;85.13
2188;BME280;1100;52.014;8.540;2023-03-21T03:05:48;100131.81;;;6.42;84.89
2188;BME280;1100;52.014;8.540;2023-03-21T03:13:30;100133.38;;;6.43;85.30
2188;BME280;1100;52.014;8.540;2023-03-21T03:18:55;100121.56;;;6.43;85.26
2188;BME280;1100;52.014;8.540;2023-03-21T03:24:25;100112.03;;;6.47;85.96
2188;BME280;1100;52.014;8.540;2023-03-21T03:27:05;100119.16;;;6.45;85.72
2188;BME280;1100;52.014;8.540;2023-03-21T03:29:33;100120.34;;;6.44;85.58
2188;BME280;1100;52.014;8.540;2023-03-21T03:32:16;100114.84;;;6.44;85.73
2188;BME280;1100;52.014;8.540;2023-03-21T03:34:50;100116.03;;;6.43;85.85
2188;BME280;1100;52.014;8.540;2023-03-21T03:37:19;100109.72;;;6.42;85.65
2188;BME280;1100;52.014;8.540;2023-03-21T03:39:52;100113.63;;;6.45;85.95
2188;BME280;1100;52.014;8.540;2023-03-21T03:42:21;100101.41;;;6.46;86.31
2188;BME280;1100;52.014;8.540;2023-03-21T03:44:48;100110.03;;;6.52;86.20
2188;BME280;1100;52.014;8.540;2023-03-21T03:47:22;100105.28;;;6.52;86.01
2188;BME280;1100;52.014;8.540;2023-03-21T03:52:55;100105.63;;;6.58;86.69
2188;BME280;1100;52.014;8.540;2023-03-21T03:55:24;100098.84;;;6.63;86.85
2188;BME280;1100;52.014;8.540;2023-03-21T03:57:52;100102.75;;;6.65;86.44
2188;BME280;1100;52.014;8.540;2023-03-21T04:00:18;100092.88;;;6.68;86.88
2188;BME280;1100;52.014;8.540;2023-03-21T04:02:45;100101.56;;;6.70;86.69
2188;BME280;1100;52.014;8.540;2023-03-21T04:05:11;100099.53;;;6.74;86.54
2188;BME280;1100;52.014;8.540;2023-03-21T04:07:37;100094.78;;;6.75;86.71
2188;BME280;1100;52.014;8.540;2023-03-21T04:10:02;100092.03;;;6.75;86.72
2188;BME280;1100;52.014;8.540;2023-03-21T04:12:29;100095.94;;;6.77;86.65
2188;BME280;1100;52.014;8.540;2023-03-21T04:14:54;100093.19;;;6.77;86.65
2188;BME280;1100;52.014;8.540;2023-03-21T04:17:19;100097.16;;;6.76;86.45
2188;BME280;1100;52.014;8.540;2023-03-21T04:19:45;100099.13;;;6.76;86.62
2188;BME280;1100;52.014;8.540;2023-03-21T04:22:11;100093.22;;;6.73;86.15
2188;BME280;1100;52.014;8.540;2023-03-21T04:24:38;100091.66;;;6.72;86.32
2188;BME280;1100;52.014;8.540;2023-03-21T04:27:04;100095.63;;;6.71;86.33
2188;BME280;1100;52.014;8.540;2023-03-21T04:29:30;100090.50;;;6.70;86.23
2188;BME280;1100;52.014;8.540;2023-03-21T04:31:55;100088.16;;;6.68;86.21
2188;BME280;1100;52.014;8.540;2023-03-21T04:34:21;100089.31;;;6.71;86.30
2188;BME280;1100;52.014;8.540;2023-03-21T04:36:49;100092.44;;;6.73;86.51
2188;BME280;1100;52.014;8.540;2023-03-21T04:39:15;100087.69;;;6.73;86.21
2188;BME280;1100;52.014;8.540;2023-03-21T04:41:42;100092.38;;;6.77;86.50
2188;BME280;1100;52.014;8.540;2023-03-21T04:44:13;100081.34;;;6.77;86.27
2188;BME280;1100;52.014;8.540;2023-03-21T04:46:38;100078.16;;;6.78;86.48
2188;BME280;1100;52.014;8.540;2023-03-21T04:49:04;100059.56;;;6.82;86.32
2188;BME280;1100;52.014;8.540;2023-03-21T04:51:32;100064.28;;;6.85;86.38
2188;BME280;1100;52.014;8.540;2023-03-21T04:53:57;100060.69;;;6.89;86.57
2188;BME280;1100;52.014;8.540;2023-03-21T04:56:24;100063.78;;;6.91;86.42
2188;BME280;1100;52.014;8.540;2023-03-21T04:58:59;100058.66;;;6.93;86.41
2188;BME280;1100;52.014;8.540;2023-03-21T05:01:25;100057.03;;;6.95;86.32
2188;BME280;1100;52.014;8.540;2023-03-21T05:03:57;100056.19;;;6.98;86.60
2188;BME280;1100;52.014;8.540;2023-03-21T05:06:23;100054.19;;;7.03;86.91
2188;BME280;1100;52.014;8.540;2023-03-21T05:08:48;100055.69;;;7.07;86.38
2188;BME280;1100;52.014;8.540;2023-03-21T05:11:14;100056.47;;;7.08;86.37
2188;BME280;1100;52.014;8.540;2023-03-21T05:13:39;100052.53;;;7.09;86.69
2188;BME280;1100;52.014;8.540;2023-03-21T05:16:06;100055.63;;;7.11;86.73
2188;BME280;1100;52.014;8.540;2023-03-21T05:18:31;100053.63;;;7.15;86.46
2188;BME280;1100;52.014;8.540;2023-03-21T05:20:59;100051.19;;;7.17;86.55
2188;BME280;1100;52.014;8.540;2023-03-21T05:23:24;100060.28;;;7.18;86.32
2188;BME280;1100;52.014;8.540;2023-03-21T05:25:50;100054.75;;;7.18;86.31
2188;BME280;1100;52.014;8.540;2023-03-21T05:28:18;100052.78;;;7.18;86.39
2188;BME280;1100;52.014;8.540;2023-03-21T05:30:45;100053.19;;;7.17;86.47
2188;BME280;1100;52.014;8.540;2023-03-21T05:33:11;100055.56;;;7.18;86.63
2188;BME280;1100;52.014;8.540;2023-03-21T05:35:37;100057.56;;;7.14;86.19
2188;BME280;1100;52.014;8.540;2023-03-21T05:38:03;100054.03;;;7.14;86.17
2188;BME280;1100;52.014;8.540;2023-03-21T05:40:28;100048.50;;;7.14;86.32
2188;BME280;1100;52.014;8.540;2023-03-21T05:42:53;100054.78;;;7.14;86.37
2188;BME280;1100;52.014;8.540;2023-03-21T05:45:19;100054.78;;;7.14;86.08
2188;BME280;1100;52.014;8.540;2023-03-21T05:47:44;100051.28;;;7.14;86.29
2188;BME280;1100;52.014;8.540;2023-03-21T05:50:11;100055.59;;;7.15;86.11
2188;BME280;1100;52.014;8.540;2023-03-21T05:52:37;100060.69;;;7.16;86.16
2188;BME280;1100;52.014;8.540;2023-03-21T05:55:03;100053.94;;;7.21;86.25
2188;BME280;1100;52.014;8.540;2023-03-21T05:57:29;100054.31;;;7.23;86.09
2188;BME280;1100;52.014;8.540;2023-03-21T05:59:57;100055.84;;;7.24;86.31
2188;BME280;1100;52.014;8.540;2023-03-21T06:02:22;100048.69;;;7.27;86.12
2188;BME280;1100;52.014;8.540;2023-03-21T06:04:47;100050.28;;;7.28;85.94
2188;BME280;1100;52.014;8.540;2023-03-21T06:07:13;100049.03;;;7.32;85.92
2188;BME280;1100;52.014;8.540;2023-03-21T06:09:38;100054.50;;;7.36;86.09
2188;BME280;1100;52.014;8.540;2023-03-21T06:12:03;100048.91;;;7.40;85.93
2188;BME280;1100;52.014;8.540;2023-03-21T06:14:29;100053.19;;;7.44;85.93
2188;BME280;1100;52.014;8.540;2023-03-21T06:16:54;100053.19;;;7.44;85.67
2188;BME280;1100;52.014;8.540;2023-03-21T06:19:20;100051.56;;;7.47;85.80
2188;BME280;1100;52.014;8.540;2023-03-21T06:21:46;100053.50;;;7.50;86.17
2188;BME280;1100;52.014;8.540;2023-03-21T06:24:12;100062.94;;;7.53;85.67
2188;BME280;1100;52.014;8.540;2023-03-21T06:26:37;100049.84;;;7.57;85.63
2188;BME280;1100;52.014;8.540;2023-03-21T06:29:03;100055.31;;;7.60;85.89
2188;BME280;1100;52.014;8.540;2023-03-21T06:31:29;100048.56;;;7.62;85.69
2188;BME280;1100;52.014;8.540;2023-03-21T06:33:54;100043.41;;;7.64;85.76
2188;BME280;1100;52.014;8.540;2023-03-21T06:36:20;100046.53;;;7.66;85.67
2188;BME280;1100;52.014;8.540;2023-03-21T06:38:45;100059.53;;;7.69;85.64
2188;BME280;1100;52.014;8.540;2023-03-21T06:41:11;100054.34;;;7.71;85.59
2188;BME280;1100;52.014;8.540;2023-03-21T06:43:37;100054.31;;;7.75;85.72
2188;BME280;1100;52.014;8.540;2023-03-21T06:46:02;100051.47;;;7.78;85.44
2188;BME280;1100;52.014;8.540;2023-03-21T06:48:28;100056.56;;;7.80;85.55
2188;BME280;1100;52.014;8.540;2023-03-21T06:50:56;100052.53;;;7.84;85.58
2188;BME280;1100;52.014;8.540;2023-03-21T06:53:24;100049.72;;;7.88;85.45
2188;BME280;1100;52.014;8.540;2023-03-21T06:55:52;100053.56;;;7.94;85.33
2188;BME280;1100;52.014;8.540;2023-03-21T06:58:19;100061.03;;;7.97;85.46
2188;BME280;1100;52.014;8.540;2023-03-21T07:00:44;100059.78;;;8.02;85.40
2188;BME280;1100;52.014;8.540;2023-03-21T07:03:11;100058.09;;;8.08;85.37
2188;BME280;1100;52.014;8.540;2023-03-21T07:05:36;100051.34;;;8.09;85.40
2188;BME280;1100;52.014;8.540;2023-03-21T07:08:03;100051.34;;;8.09;85.25
2188;BME280;1100;52.014;8.540;2023-03-21T07:10:29;100055.63;;;8.14;85.23
2188;BME280;1100;52.014;8.540;2023-03-21T07:12:54;100049.66;;;8.16;85.40
2188;BME280;1100;52.014;8.540;2023-03-21T07:15:20;100051.59;;;8.19;85.16
2188;BME280;1100;52.014;8.540;2023-03-21T07:17:45;100051.06;;;8.24;85.13
2188;BME280;1100;52.014;8.540;2023-03-21T07:20:11;100056.97;;;8.26;85.22
2188;BME280;1100;52.014;8.540;2023-03-21T07:22:37;100055.44;;;8.25;85.17
2188;BME280;1100;52.014;8.540;2023-03-21T07:25:03;100067.28;;;8.26;85.15
2188;BME280;1100;52.014;8.540;2023-03-21T07:27:29;100065.28;;;8.26;85.30
2188;BME280;1100;52.014;8.540;2023-03-21T07:29:54;100054.59;;;8.28;85.22
2188;BME280;1100;52.014;8.540;2023-03-21T07:32:20;100058.84;;;8.33;85.44
2188;BME280;1100;52.014;8.540;2023-03-21T07:34:45;100059.91;;;8.39;85.15
2188;BME280;1100;52.014;8.540;2023-03-21T07:37:10;100053.44;;;8.46;85.03
2188;BME280;1100;52.014;8.540;2023-03-21T07:39:35;100054.16;;;8.50;85.00
2188;BME280;1100;52.014;8.540;2023-03-21T07:42:01;100055.69;;;8.55;85.06
2188;BME280;1100;52.014;8.540;2023-03-21T07:44:27;100059.59;;;8.57;84.79
2188;BME280;1100;52.014;8.540;2023-03-21T07:46:53;100059.22;;;8.55;84.78
2188;BME280;1100;52.014;8.540;2023-03-21T07:49:18;100061.25;;;8.51;84.72
2188;BME280;1100;52.014;8.540;2023-03-21T07:51:44;100064.19;;;8.44;84.47
2188;BME280;1100;52.014;8.540;2023-03-21T07:54:09;100057.69;;;8.30;84.49
2188;BME280;1100;52.014;8.540;2023-03-21T07:56:34;100063.84;;;8.18;84.51
2188;BME280;1100;52.014;8.540;2023-03-21T07:59:00;100062.44;;;8.09;84.91
2188;BME280;1100;52.014;8.540;2023-03-21T08:01:25;100066.75;;;8.10;85.00
2188;BME280;1100;52.014;8.540;2023-03-21T08:03:51;100065.13;;;8.13;84.93
2188;BME280;1100;52.014;8.540;2023-03-21T08:06:21;100064.63;;;8.18;85.35
2188;BME280;1100;52.014;8.540;2023-03-21T08:08:47;100063.31;;;8.27;85.18
2188;BME280;1100;52.014;8.540;2023-03-21T08:11:13;100071.06;;;8.35;85.10
2188;BME280;1100;52.014;8.540;2023-03-21T08:13:39;100071.41;;;8.38;85.03
2188;BME280;1100;52.014;8.540;2023-03-21T08:16:06;100075.88;;;8.31;84.83
2188;BME280;1100;52.014;8.540;2023-03-21T08:18:31;100064.91;;;8.24;84.83
2188;BME280;1100;52.014;8.540;2023-03-21T08:20:57;100074.59;;;8.16;85.12
2188;BME280;1100;52.014;8.540;2023-03-21T08:23:23;100068.41;;;8.08;85.09
2188;BME280;1100;52.014;8.540;2023-03-21T08:25:55;100070.09;;;8.02;85.10
2188;BME280;1100;52.014;8.540;2023-03-21T08:28:21;100067.38;;;7.98;85.26
2188;BME280;1100;52.014;8.540;2023-03-21T08:30:47;100067.78;;;7.96;85.17
2188;BME280;1100;52.014;8.540;2023-03-21T08:33:13;100069.75;;;7.96;85.22
2188;BME280;1100;52.014;8.540;2023-03-21T08:35:39;100073.38;;;7.93;85.67
2188;BME280;1100;52.014;8.540;2023-03-21T08:38:05;100064.00;;;7.87;85.63
2188;BME280;1100;52.014;8.540;2023-03-21T08:40:31;100061.69;;;7.81;85.49
2188;BME280;1100;52.014;8.540;2023-03-21T08:42:57;100069.56;;;7.83;85.66
2188;BME280;1100;52.014;8.540;2023-03-21T08:45:23;100062.44;;;7.85;85.48
2188;BME280;1100;52.014;8.540;2023-03-21T08:47:49;100068.69;;;7.90;85.64
2188;BME280;1100;52.014;8.540;2023-03-21T08:50:17;100074.94;;;7.94;85.80
2188;BME280;1100;52.014;8.540;2023-03-21T08:52:43;100074.88;;;7.97;86.04
2188;BME280;1100;52.014;8.540;2023-03-21T08:55:10;100070.97;;;7.95;86.13
2188;BME280;1100;52.014;8.540;2023-03-21T08:57:35;100071.81;;;7.92;86.16
2188;BME280;1100;52.014;8.540;2023-03-21T09:00:05;100070.25;;;7.91;86.33
2188;BME280;1100;52.014;8.540;2023-03-21T09:02:39;100066.34;;;7.88;86.36
2188;BME280;1100;52.014;8.540;2023-03-21T09:05:04;100071.06;;;7.88;86.40
2188;BME280;1100;52.014;8.540;2023-03-21T09:07:30;100062.47;;;7.82;86.55
2188;BME280;1100;52.014;8.540;2023-03-21T09:09:58;100070.50;;;7.76;86.66
2188;BME280;1100;52.014;8.540;2023-03-21T09:12:24;100060.69;;;7.71;86.72
2188;BME280;1100;52.014;8.540;2023-03-21T09:14:49;100061.09;;;7.70;86.78
2188;BME280;1100;52.014;8.540;2023-03-21T09:17:15;100065.06;;;7.69;86.93
2188;BME280;1100;52.014;8.540;2023-03-21T09:19:40;100060.00;;;7.64;86.74
2188;BME280;1100;52.014;8.540;2023-03-21T09:22:06;100058.81;;;7.65;87.00
2188;BME280;1100;52.014;8.540;2023-03-21T09:24:41;100061.56;;;7.65;86.70
2188;BME280;1100;52.014;8.540;2023-03-21T09:27:07;100064.28;;;7.68;87.15
2188;BME280;1100;52.014;8.540;2023-03-21T09:29:33;100061.88;;;7.70;86.87
2188;BME280;1100;52.014;8.540;2023-03-21T09:31:59;100057.13;;;7.71;86.93
2188;BME280;1100;52.014;8.540;2023-03-21T09:34:26;100060.59;;;7.75;86.98
2188;BME280;1100;52.014;8.540;2023-03-21T09:36:52;100070.50;;;7.76;87.04
2188;BME280;1100;52.014;8.540;2023-03-21T09:39:20;100070.00;;;7.81;87.02
2188;BME280;1100;52.014;8.540;2023-03-21T09:44:40;100061.41;;;8.00;87.85
2188;BME280;1100;52.014;8.540;2023-03-21T09:47:26;100062.50;;;8.06;87.61
2188;BME280;1100;52.014;8.540;2023-03-21T09:52:46;100059.28;;;8.31;87.56
2188;BME280;1100;52.014;8.540;2023-03-21T09:55:33;100055.34;;;8.29;88.25
2188;BME280;1100;52.014;8.540;2023-03-21T09:58:06;100058.25;;;8.21;87.95
2188;BME280;1100;52.014;8.540;2023-03-21T10:00:38;100061.81;;;8.22;87.96
2188;BME280;1100;52.014;8.540;2023-03-21T10:03:31;100055.97;;;8.16;88.23
2188;BME280;1100;52.014;8.540;2023-03-21T10:06:02;100051.28;;;8.13;88.32
2188;BME280;1100;52.014;8.540;2023-03-21T10:08:34;100057.75;;;8.06;88.20
2188;BME280;1100;52.014;8.540;2023-03-21T10:11:12;100061.63;;;8.09;88.82
2188;BME280;1100;52.014;8.540;2023-03-21T10:13:49;100056.53;;;8.07;88.39
2188;BME280;1100;52.014;8.540;2023-03-21T10:16:29;100056.09;;;8.09;88.46
2188;BME280;1100;52.014;8.540;2023-03-21T10:18:58;100058.31;;;8.18;88.70
2188;BME280;1100;52.014;8.540;2023-03-21T10:21:26;100049.09;;;8.25;88.45
2188;BME280;1100;52.014;8.540;2023-03-21T10:23:54;100040.66;;;8.32;88.70
2188;BME280;1100;52.014;8.540;2023-03-21T10:26:21;100038.09;;;8.41;89.11
2188;BME280;1100;52.014;8.540;2023-03-21T10:28:48;100036.75;;;8.50;89.33
2188;BME280;1100;52.014;8.540;2023-03-21T10:31:17;100036.69;;;8.53;89.25
2188;BME280;1100;52.014;8.540;2023-03-21T10:33:45;100035.13;;;8.52;89.03
2188;BME280;1100;52.014;8.540;2023-03-21T10:36:18;100036.63;;;8.57;89.22
2188;BME280;1100;52.014;8.540;2023-03-21T10:38:52;100034.16;;;8.63;89.11
2188;BME280;1100;52.014;8.540;2023-03-21T10:41:18;100028.63;;;8.63;89.31
2188;BME280;1100;52.014;8.540;2023-03-21T10:43:46;100029.69;;;8.69;89.04
2188;BME280;1100;52.014;8.540;2023-03-21T10:46:19;100032.56;;;8.82;89.37
2188;BME280;1100;52.014;8.540;2023-03-21T10:48:50;100029.72;;;8.85;88.99
2188;BME280;1100;52.014;8.540;2023-03-21T10:51:19;100029.38;;;8.83;89.09
2188;BME280;1100;52.014;8.540;2023-03-21T10:53:50;100014.81;;;8.79;89.32
2188;BME280;1100;52.014;8.540;2023-03-21T10:56:16;100017.16;;;8.81;89.26
2188;BME280;1100;52.014;8.540;2023-03-21T10:58:44;100023.31;;;8.89;89.85
2188;BME280;1100;52.014;8.540;2023-03-21T11:01:23;100020.47;;;8.92;90.11
2188;BME280;1100;52.014;8.540;2023-03-21T11:03:55;100023.59;;;8.94;89.61
2188;BME280;1100;52.014;8.540;2023-03-21T11:06:33;100019.38;;;9.06;89.97
2188;BME280;1100;52.014;8.540;2023-03-21T11:09:13;100036.03;;;9.06;89.41
2188;BME280;1100;52.014;8.540;2023-03-21T11:14:42;100017.53;;;9.00;89.70
2188;BME280;1100;52.014;8.540;2023-03-21T11:17:29;100020.75;;;8.98;90.16
2188;BME280;1100;52.014;8.540;2023-03-21T11:20:02;100012.59;;;8.91;89.86
2188;BME280;1100;52.014;8.540;2023-03-21T11:22:37;100016.38;;;8.80;89.96
2188;BME280;1100;52.014;8.540;2023-03-21T11:25:06;100024.03;;;8.72;89.82
2188;BME280;1100;52.014;8.540;2023-03-21T11:27:33;100012.25;;;8.68;90.18
2188;BME280;1100;52.014;8.540;2023-03-21T11:30:02;100009.06;;;8.70;90.16
2188;BME280;1100;52.014;8.540;2023-03-21T11:32:32;100001.13;;;8.72;90.15
2188;BME280;1100;52.014;8.540;2023-03-21T11:35:01;100005.28;;;8.80;90.70
2188;BME280;1100;52.014;8.540;2023-03-21T11:37:36;100006.84;;;8.81;90.28
2188;BME280;1100;52.014;8.540;2023-03-21T11:40:23;100005.56;;;8.86;90.41
2188;BME280;1100;52.014;8.540;2023-03-21T11:42:54;100005.56;;;8.86;90.49
2188;BME280;1100;52.014;8.540;2023-03-21T11:45:28;99992.47;;;8.87;90.81
2188;BME280;1100;52.014;8.540;2023-03-21T11:47:55;99993.97;;;8.91;90.55
2188;BME280;1100;52.014;8.540;2023-03-21T11:55:35;99984.94;;;8.87;90.50
2188;BME280;1100;52.014;8.540;2023-03-21T12:00:57;99972.97;;;8.74;90.83
2188;BME280;1100;52.014;8.540;2023-03-21T12:03:37;99968.28;;;8.70;90.74
2188;BME280;1100;52.014;8.540;2023-03-21T12:09:25;99962.19;;;8.59;90.87
2188;BME280;1100;52.014;8.540;2023-03-21T12:14:42;99959.06;;;8.57;90.83
2188;BME280;1100;52.014;8.540;2023-03-21T12:17:42;99955.84;;;8.58;90.88
2188;BME280;1100;52.014;8.540;2023-03-21T12:20:36;99953.81;;;8.63;90.97
2188;BME280;1100;52.014;8.540;2023-03-21T12:23:14;99959.00;;;8.60;90.99
2188;BME280;1100;52.014;8.540;2023-03-21T12:25:48;99944.97;;;8.68;91.07
2188;BME280;1100;52.014;8.540;2023-03-21T12:28:53;99941.19;;;8.78;90.83
2188;BME280;1100;52.014;8.540;2023-03-21T12:34:28;99935.91;;;8.84;90.83
2188;BME280;1100;52.014;8.540;2023-03-21T12:40:16;99926.81;;;8.83;91.66
2188;BME280;1100;52.014;8.540;2023-03-21T12:45:40;99919.72;;;8.82;91.28
2188;BME280;1100;52.014;8.540;2023-03-21T12:51:01;99916.59;;;8.80;91.57
2188;BME280;1100;52.014;8.540;2023-03-21T12:53:55;99919.72;;;8.82;91.28
2188;BME280;1100;52.014;8.540;2023-03-21T13:01:57;99920.25;;;8.94;91.84
2188;BME280;1100;52.014;8.540;2023-03-21T13:04:36;99896.94;;;8.91;91.80
2188;BME280;1100;52.014;8.540;2023-03-21T13:07:07;99910.47;;;8.89;91.82
2188;BME280;1100;52.014;8.540;2023-03-21T13:09:34;99906.03;;;8.92;91.71
2188;BME280;1100;52.014;8.540;2023-03-21T13:12:05;99912.19;;;9.00;91.72
2188;BME280;1100;52.014;8.540;2023-03-21T13:14:39;99910.03;;;9.07;91.80
2188;BME280;1100;52.014;8.540;2023-03-21T13:17:23;99911.25;;;9.06;91.85
2188;BME280;1100;52.014;8.540;2023-03-21T13:22:44;99902.38;;;9.12;91.82
2188;BME280;1100;52.014;8.540;2023-03-21T13:25:22;99897.44;;;9.19;91.53
2188;BME280;1100;52.014;8.540;2023-03-21T13:27:54;99888.00;;;9.33;91.67
2188;BME280;1100;52.014;8.540;2023-03-21T13:30:28;99884.53;;;9.46;91.81
2188;BME280;1100;52.014;8.540;2023-03-21T13:33:06;99895.84;;;9.52;91.56
2188;BME280;1100;52.014;8.540;2023-03-21T13:35:35;99890.41;;;9.48;91.74
2188;BME280;1100;52.014;8.540;2023-03-21T13:40:44;99885.69;;;9.62;92.03
2188;BME280;1100;52.014;8.540;2023-03-21T13:46:10;99873.44;;;9.89;91.77
2188;BME280;1100;52.014;8.540;2023-03-21T13:51:21;99868.16;;;9.94;91.57
2188;BME280;1100;52.014;8.540;2023-03-21T13:59:45;99858.69;;;9.92;91.43
2188;BME280;1100;52.014;8.540;2023-03-21T14:04:38;99844.50;;;9.90;91.67
2188;BME280;1100;52.014;8.540;2023-03-21T14:07:41;99835.16;;;9.83;91.45
2188;BME280;1100;52.014;8.540;2023-03-21T14:10:17;99831.94;;;9.85;91.77
2188;BME280;1100;52.014;8.540;2023-03-21T14:12:43;99829.72;;;9.93;91.74
2188;BME280;1100;52.014;8.540;2023-03-21T14:15:22;99824.03;;;9.96;91.62
2188;BME280;1100;52.014;8.540;2023-03-21T14:17:56;99811.50;;;9.92;91.49
2188;BME280;1100;52.014;8.540;2023-03-21T14:20:24;99807.16;;;9.91;91.63
2188;BME280;1100;52.014;8.540;2023-03-21T14:22:50;99808.41;;;9.90;91.90
2188;BME280;1100;52.014;8.540;2023-03-21T14:25:18;99805.06;;;9.95;91.86
2188;BME280;1100;52.014;8.540;2023-03-21T14:27:48;99806.94;;;9.98;91.57
2188;BME280;1100;52.014;8.540;2023-03-21T14:30:41;99794.63;;;9.99;91.36
2188;BME280;1100;52.014;8.540;2023-03-21T14:35:39;99795.53;;;9.96;91.65
2188;BME280;1100;52.014;8.540;2023-03-21T14:38:06;99795.84;;;9.98;91.71
2188;BME280;1100;52.014;8.540;2023-03-21T14:40:33;99800.72;;;9.94;91.75
2188;BME280;1100;52.014;8.540;2023-03-21T14:43:04;99798.75;;;9.94;91.69
2188;BME280;1100;52.014;8.540;2023-03-21T14:45:30;99796.41;;;9.93;91.98
2188;BME280;1100;52.014;8.540;2023-03-21T14:48:09;99794.16;;;9.88;91.93
2188;BME280;1100;52.014;8.540;2023-03-21T14:50:51;99793.38;;;9.87;92.00
2188;BME280;1100;52.014;8.540;2023-03-21T14:53:24;99791.03;;;9.85;91.99
2188;BME280;1100;52.014;8.540;2023-03-21T14:55:58;99788.41;;;9.82;92.02
2188;BME280;1100;52.014;8.540;2023-03-21T14:58:24;99779.28;;;9.81;92.13
2188;BME280;1100;52.014;8.540;2023-03-21T15:00:52;99779.28;;;9.81;92.15
2188;BME280;1100;52.014;8.540;2023-03-21T15:03:19;99778.06;;;9.82;92.12
2188;BME280;1100;52.014;8.540;2023-03-21T15:05:46;99772.84;;;9.84;92.19
2188;BME280;1100;52.014;8.540;2023-03-21T15:08:17;99755.41;;;9.84;92.26
2188;BME280;1100;52.014;8.540;2023-03-21T15:10:55;99753.31;;;9.88;91.92
2188;BME280;1100;52.014;8.540;2023-03-21T15:13:24;99747.31;;;9.90;92.03
2188;BME280;1100;52.014;8.540;2023-03-21T15:15:50;99746.53;;;9.89;91.85